Time;durP1;ratioP1;P1;durP2;ratioP2;P2;SDS_P1;SDS_P2;PMS_P1;PMS_P2;Temp;Humidity;BMP_temperature;BMP_pressure;BME280_temperature;BME280_humidity;BME280_pressure;Samples;Min_cycle;Max_cycle;Signal;HPM_P1;HPM_P2
2022/04/05 00:00:09;;;;;;;5.80;3.60;;;4.10;99.90;;;;;;4915985;29;20190;-68
2022/04/05 00:02:36;;;;;;;7.68;3.72;;;4.10;99.90;;;;;;4914766;29;20075;-69
2022/04/05 00:05:03;;;;;;;5.25;3.45;;;4.00;99.90;;;;;;4913042;29;20044;-69
2022/04/05 00:07:29;;;;;;;5.30;3.35;;;4.00;99.90;;;;;;4916269;29;20091;-68
2022/04/05 00:09:56;;;;;;;5.85;3.33;;;4.00;99.90;;;;;;4915777;29;20048;-69
2022/04/05 00:12:23;;;;;;;5.72;3.47;;;4.00;99.90;;;;;;4909778;29;20048;-68
2022/04/05 00:14:50;;;;;;;6.97;3.33;;;4.00;99.90;;;;;;4915964;29;20047;-69
2022/04/05 00:17:18;;;;;;;8.07;4.32;;;4.00;99.90;;;;;;4916117;29;20493;-69
2022/04/05 00:19:45;;;;;;;9.20;3.92;;;4.00;99.90;;;;;;4915520;29;20052;-69
2022/04/05 00:22:12;;;;;;;3.78;2.67;;;4.00;99.90;;;;;;4912649;29;20044;-69
2022/04/05 00:24:38;;;;;;;4.85;3.10;;;4.10;99.90;;;;;;4915887;29;20048;-69
2022/04/05 00:27:05;;;;;;;5.95;3.08;;;4.00;99.90;;;;;;4915978;29;20044;-69
2022/04/05 00:29:32;;;;;;;3.80;2.60;;;4.00;99.90;;;;;;4898486;29;20040;-69
2022/04/05 00:31:59;;;;;;;3.35;2.15;;;4.00;99.90;;;;;;4908032;29;20108;-69
2022/04/05 00:34:26;;;;;;;7.07;3.58;;;4.00;99.90;;;;;;4915603;29;20044;-69
2022/04/05 00:36:53;;;;;;;6.75;3.47;;;4.00;99.90;;;;;;4915685;29;20452;-69
2022/04/05 00:39:21;;;;;;;6.20;4.05;;;4.00;99.90;;;;;;4911300;29;20053;-69
2022/04/05 00:41:48;;;;;;;;;;;4.00;99.90;;;;;;4915768;29;20557;-69
2022/04/05 00:44:15;;;;;;;8.95;4.88;;;4.00;99.90;;;;;;4915774;29;20444;-69
2022/04/05 00:46:42;;;;;;;;;;;4.10;99.90;;;;;;4915864;29;20040;-69
2022/04/05 00:49:14;;;;;;;8.13;3.45;;;4.10;99.90;;;;;;4913492;29;19923;-69
2022/04/05 00:51:41;;;;;;;7.22;3.17;;;4.10;99.90;;;;;;4915305;29;20445;-69
2022/04/05 00:54:10;;;;;;;8.05;3.47;;;4.10;99.90;;;;;;4915602;29;20075;-69
2022/04/05 00:56:37;;;;;;;5.78;2.97;;;4.10;99.90;;;;;;4910524;29;20466;-69
2022/04/05 00:59:07;;;;;;;4.63;2.95;;;4.00;99.90;;;;;;4912362;29;20036;-69
2022/04/05 01:01:34;;;;;;;4.35;3.00;;;4.00;99.90;;;;;;4914825;29;20075;-69
2022/04/05 01:04:02;;;;;;;6.60;2.83;;;4.10;99.90;;;;;;4915542;29;20493;-69
2022/04/05 01:06:37;;;;;;;4.68;2.42;;;4.00;99.90;;;;;;4914513;29;20040;-69
2022/04/05 01:09:09;;;;;;;4.38;3.20;;;4.00;99.90;;;;;;4915338;29;20454;-69
2022/04/05 01:11:37;;;;;;;5.82;2.95;;;4.00;99.90;;;;;;4914816;29;20104;-69
2022/04/05 01:14:04;;;;;;;5.35;2.70;;;4.10;99.90;;;;;;4911664;29;20036;-69
2022/04/05 01:16:31;;;;;;;3.75;2.60;;;4.10;99.90;;;;;;4915285;29;20051;-69
2022/04/05 01:18:58;;;;;;;5.85;3.53;;;4.10;99.90;;;;;;4915297;29;20044;-69
2022/04/05 01:21:27;;;;;;;8.15;4.95;;;4.10;99.90;;;;;;4909546;29;20083;-69
2022/04/05 01:24:23;;;;;;;9.50;6.25;;;4.10;99.90;;;;;;4914920;29;20040;-69
2022/04/05 01:26:53;;;;;;;9.80;5.20;;;4.10;99.90;;;;;;4903395;29;20111;-69
2022/04/05 01:29:22;;;;;;;9.32;6.20;;;4.10;99.90;;;;;;4914934;29;20052;-69
2022/04/05 01:31:52;;;;;;;10.82;6.20;;;4.10;99.90;;;;;;4912434;29;20044;-69
2022/04/05 01:34:22;;;;;;;11.05;5.68;;;4.10;99.90;;;;;;4915150;29;20044;-69
2022/04/05 01:36:52;;;;;;;15.68;6.45;;;4.10;99.90;;;;;;4914909;29;20050;-69
2022/04/05 01:39:21;;;;;;;14.23;7.50;;;4.10;99.90;;;;;;4912537;29;20056;-69
2022/04/05 01:41:58;;;;;;;13.20;7.63;;;4.10;99.90;;;;;;4914760;29;20092;-69
2022/04/05 01:44:27;;;;;;;14.05;8.48;;;4.10;99.90;;;;;;4915136;29;20096;-69
2022/04/05 01:46:55;;;;;;;16.52;9.13;;;4.00;99.90;;;;;;4915161;29;20382;-69
2022/04/05 01:49:22;;;;;;;13.88;7.97;;;4.10;99.90;;;;;;4907825;29;20087;-69
2022/04/05 01:51:49;;;;;;;20.25;9.57;;;4.10;99.90;;;;;;4914808;29;20048;-69
2022/04/05 01:54:17;;;;;;;19.20;10.20;;;4.00;99.90;;;;;;4915020;29;20507;-69
2022/04/05 01:56:49;;;;;;;24.13;10.07;;;4.00;99.90;;;;;;4913748;29;20557;-68
2022/04/05 01:59:21;;;;;;;15.57;9.90;;;4.00;99.90;;;;;;4913236;29;20095;-69
2022/04/05 02:01:48;;;;;;;20.30;11.73;;;4.10;99.90;;;;;;4914579;29;20515;-69
2022/04/05 02:04:15;;;;;;;;;;;4.10;99.90;;;;;;4915301;29;20067;-69
2022/04/05 02:06:43;;;;;;;16.70;9.95;;;4.10;99.90;;;;;;4911926;29;19938;-69
2022/04/05 02:09:14;;;;;;;13.15;7.95;;;4.10;99.90;;;;;;4912300;29;20130;-69
2022/04/05 02:11:46;;;;;;;9.82;5.25;;;4.10;99.90;;;;;;4897561;29;20044;-69
2022/04/05 02:14:37;;;;;;;6.25;4.00;;;4.10;99.90;;;;;;4897869;29;20135;-69
2022/04/05 02:17:07;;;;;;;7.07;3.70;;;4.10;99.90;;;;;;4897480;29;20099;-69
2022/04/05 02:19:38;;;;;;;6.28;4.18;;;4.10;99.90;;;;;;4897200;29;20048;-69
2022/04/05 02:22:06;;;;;;;7.60;3.92;;;4.10;99.90;;;;;;4899699;29;20062;-69
2022/04/05 02:24:34;;;;;;;6.45;3.78;;;4.10;99.90;;;;;;4900003;29;20051;-69
2022/04/05 02:27:02;;;;;;;8.68;3.85;;;4.10;99.90;;;;;;4901066;29;20406;-69
2022/04/05 02:29:29;;;;;;;12.43;5.55;;;4.10;99.90;;;;;;4900558;29;20080;-69
2022/04/05 02:32:01;;;;;;;10.23;6.20;;;4.10;99.90;;;;;;4913665;29;20059;-69
2022/04/05 02:34:28;;;;;;;8.80;5.78;;;4.00;99.90;;;;;;4910268;29;20484;-69
2022/04/05 02:36:59;;;;;;;13.55;6.57;;;4.00;99.90;;;;;;4901074;29;20048;-69
2022/04/05 02:39:26;;;;;;;12.82;6.10;;;4.00;99.90;;;;;;4900443;29;20441;-69
2022/04/05 02:41:57;;;;;;;16.25;9.00;;;3.90;99.90;;;;;;4899782;29;20052;-69
2022/04/05 02:44:24;;;;;;;18.52;10.02;;;4.00;99.90;;;;;;4900519;29;20050;-69
2022/04/05 02:46:57;;;;;;;16.45;9.73;;;4.00;99.90;;;;;;4916600;29;20052;-69
2022/04/05 02:49:27;;;;;;;16.83;10.70;;;4.00;99.90;;;;;;4897707;29;20044;-69
2022/04/05 02:51:55;;;;;;;20.42;10.93;;;4.00;99.90;;;;;;4896190;29;20440;-69
2022/04/05 02:54:29;;;;;;;22.25;12.10;;;4.00;99.90;;;;;;4867558;29;20060;-69
2022/04/05 02:56:58;;;;;;;21.08;11.05;;;4.00;99.90;;;;;;4897496;29;20048;-69
2022/04/05 02:59:26;;;;;;;21.40;11.73;;;4.00;99.90;;;;;;4900025;29;20071;-69
2022/04/05 03:01:53;;;;;;;19.15;10.57;;;4.00;99.90;;;;;;4917433;29;20035;-69
2022/04/05 03:04:21;;;;;;;22.05;11.73;;;4.00;99.90;;;;;;4900284;29;20059;-69
2022/04/05 03:06:50;;;;;;;19.42;11.45;;;4.00;99.90;;;;;;4900176;29;20040;-69
2022/04/05 03:09:17;;;;;;;22.85;12.65;;;4.00;99.90;;;;;;4913878;29;20043;-69
2022/04/05 03:11:44;;;;;;;22.35;11.70;;;4.00;99.90;;;;;;4900221;29;20040;-69
2022/04/05 03:14:14;;;;;;;27.08;12.43;;;4.00;99.90;;;;;;4900383;29;20143;-69
2022/04/05 03:16:41;;;;;;;19.90;11.20;;;3.90;99.90;;;;;;4900210;29;20044;-69
2022/04/05 03:19:14;;;;;;;23.00;12.27;;;3.90;99.90;;;;;;4915762;29;20520;-69
2022/04/05 03:21:43;;;;;;;20.58;12.07;;;3.90;99.90;;;;;;4915523;29;20416;-69
2022/04/05 03:24:10;;;;;;;19.02;11.68;;;3.90;99.90;;;;;;4917061;29;20501;-69
2022/04/05 03:26:37;;;;;;;18.08;11.50;;;3.90;99.90;;;;;;4914475;29;20068;-69
2022/04/05 03:29:04;;;;;;;20.63;11.63;;;3.90;99.90;;;;;;4916797;29;20032;-69
2022/04/05 03:31:31;;;;;;;27.17;12.25;;;3.90;99.90;;;;;;4898933;29;20044;-69
2022/04/05 03:33:59;;;;;;;23.65;12.18;;;4.00;99.90;;;;;;4898559;29;20052;-69
2022/04/05 03:36:25;;;;;;;19.48;11.93;;;4.00;99.90;;;;;;4898128;29;20055;-69
2022/04/05 03:38:53;;;;;;;;;;;4.00;99.90;;;;;;4899260;29;20043;-69
2022/04/05 03:41:21;;;;;;;19.63;10.38;;;4.00;99.90;;;;;;4898534;29;19923;-69
2022/04/05 03:43:48;;;;;;;17.83;10.00;;;4.00;99.90;;;;;;4897687;29;20040;-69
2022/04/05 03:46:21;;;;;;;18.15;10.43;;;3.90;99.90;;;;;;4898067;29;20044;-69
2022/04/05 03:48:49;;;;;;;20.27;10.95;;;3.90;99.90;;;;;;4898589;29;20044;-69
2022/04/05 03:51:17;;;;;;;16.95;10.27;;;4.00;99.90;;;;;;4896747;29;20067;-69
2022/04/05 03:53:56;;;;;;;18.48;10.43;;;3.90;99.90;;;;;;4890162;29;20045;-69
2022/04/05 03:56:25;;;;;;;20.48;10.77;;;3.90;99.90;;;;;;4884002;29;20100;-69
2022/04/05 03:58:56;;;;;;;19.52;10.50;;;3.90;99.90;;;;;;4899576;29;20163;-69
2022/04/05 04:01:23;;;;;;;20.95;11.23;;;4.00;99.90;;;;;;4895820;29;20123;-69
2022/04/05 04:03:50;;;;;;;18.05;9.65;;;4.00;99.90;;;;;;4895639;29;20465;-69
2022/04/05 04:06:17;;;;;;;14.68;8.32;;;4.00;99.90;;;;;;4916108;29;20456;-69
2022/04/05 04:08:45;;;;;;;18.20;8.02;;;4.00;99.90;;;;;;4899270;29;20508;-69
2022/04/05 04:11:14;;;;;;;18.85;9.57;;;4.00;99.90;;;;;;4879781;29;20142;-69
2022/04/05 04:13:42;;;;;;;17.80;9.48;;;4.00;99.90;;;;;;4883936;29;20052;-69
2022/04/05 04:16:09;;;;;;;18.95;11.05;;;4.00;99.90;;;;;;4893850;29;20055;-69
2022/04/05 04:18:39;;;;;;;17.75;10.73;;;4.00;99.90;;;;;;4891065;29;20131;-69
2022/04/05 04:21:06;;;;;;;13.88;8.18;;;4.00;99.90;;;;;;4913235;29;20044;-69
2022/04/05 04:23:34;;;;;;;19.92;10.55;;;4.00;99.90;;;;;;4897925;29;20044;-69
2022/04/05 04:26:01;;;;;;;19.02;11.75;;;4.00;99.90;;;;;;4890764;29;20049;-69
2022/04/05 04:28:28;;;;;;;16.50;10.23;;;4.00;99.90;;;;;;4883303;29;20048;-69
2022/04/05 04:30:56;;;;;;;18.00;10.45;;;4.00;99.90;;;;;;4910115;29;20068;-69
2022/04/05 04:33:23;;;;;;;16.27;8.20;;;3.90;99.90;;;;;;4913637;29;20057;-68
2022/04/05 04:35:50;;;;;;;18.13;10.15;;;3.90;99.90;;;;;;4898095;29;20048;-69
2022/04/05 04:38:17;;;;;;;19.63;11.05;;;3.90;99.90;;;;;;4884102;29;20060;-69
2022/04/05 04:40:46;;;;;;;19.83;9.95;;;3.90;99.90;;;;;;4909459;29;20500;-69
2022/04/05 04:43:14;;;;;;;22.38;9.98;;;3.90;99.90;;;;;;4910867;29;20060;-68
2022/04/05 04:45:41;;;;;;;19.83;11.35;;;3.80;99.90;;;;;;4898186;29;20052;-68
2022/04/05 04:48:08;;;;;;;17.70;9.23;;;3.90;99.90;;;;;;4898812;29;20052;-68
2022/04/05 04:50:34;;;;;;;18.95;9.55;;;3.90;99.90;;;;;;4898119;29;20044;-68
2022/04/05 04:53:02;;;;;;;18.15;9.65;;;4.00;99.90;;;;;;4912208;23;20064;-63
2022/04/05 04:55:29;;;;;;;17.13;9.45;;;4.00;99.90;;;;;;4897634;29;20040;-63
2022/04/05 04:59:25;;;;;;;17.20;10.18;;;4.10;99.90;;;;;;4899607;29;20048;-60
2022/04/05 05:01:51;;;;;;;19.25;10.38;;;4.20;99.90;;;;;;4896472;29;20130;-63
2022/04/05 05:04:18;;;;;;;18.52;10.20;;;4.10;99.90;;;;;;4897993;29;20497;-63
2022/04/05 05:06:45;;;;;;;22.65;10.88;;;4.10;99.90;;;;;;4901712;29;20069;-63
2022/04/05 05:09:12;;;;;;;15.75;10.07;;;4.10;99.90;;;;;;4911461;29;20091;-63
2022/04/05 05:11:38;;;;;;;20.48;11.07;;;4.20;99.90;;;;;;4914522;29;20477;-64
2022/04/05 05:14:05;;;;;;;15.85;7.93;;;4.20;99.90;;;;;;4915283;29;20493;-63
2022/04/05 05:16:33;;;;;;;19.73;9.82;;;4.20;99.90;;;;;;4915321;29;20417;-63
2022/04/05 05:19:00;;;;;;;22.80;9.70;;;4.20;99.90;;;;;;4910477;29;20060;-64
2022/04/05 05:21:27;;;;;;;17.60;9.95;;;4.70;99.90;;;;;;4906974;29;20045;-64
2022/04/05 05:23:54;;;;;;;17.00;10.07;;;4.30;99.90;;;;;;4915076;29;20076;-64
2022/04/05 05:26:21;;;;;;;21.73;9.82;;;4.30;99.90;;;;;;4915143;29;20055;-64
2022/04/05 05:28:48;;;;;;;17.52;10.32;;;4.40;99.90;;;;;;4909815;29;20096;-64
2022/04/05 05:31:14;;;;;;;17.40;9.70;;;4.40;99.90;;;;;;4914270;29;20048;-64
2022/04/05 05:33:41;;;;;;;13.50;8.57;;;4.40;99.90;;;;;;4914922;29;20452;-64
2022/04/05 05:36:08;;;;;;;18.63;9.48;;;4.40;99.90;;;;;;4915088;29;20052;-64
2022/04/05 05:38:35;;;;;;;12.80;6.03;;;4.40;99.90;;;;;;4907889;29;20047;-64
2022/04/05 05:41:02;;;;;;;18.80;8.60;;;4.50;99.90;;;;;;4914498;29;20071;-64
2022/04/05 05:43:31;;;;;;;20.58;9.65;;;4.50;99.90;;;;;;4914769;29;20052;-64
2022/04/05 05:45:58;;;;;;;19.73;9.65;;;4.50;99.90;;;;;;4913340;29;20040;-63
2022/04/05 05:48:25;;;;;;;18.77;7.93;;;4.60;99.90;;;;;;4914726;29;20068;-64
2022/04/05 05:50:52;;;;;;;14.00;8.00;;;4.70;99.90;;;;;;4914409;29;20050;-64
2022/04/05 05:53:19;;;;;;;16.90;7.72;;;4.70;99.90;;;;;;4914386;29;20079;-64
2022/04/05 05:55:48;;;;;;;;;;;4.80;99.90;;;;;;4911981;29;20059;-64
2022/04/05 05:58:14;;;;;;;11.88;7.75;;;4.80;99.90;;;;;;4916532;29;19923;-64
2022/04/05 06:00:41;;;;;;;15.63;8.85;;;4.80;99.90;;;;;;4916838;29;20055;-64
2022/04/05 06:03:10;;;;;;;17.15;8.60;;;4.80;99.90;;;;;;4917107;29;20109;-64
2022/04/05 06:05:37;;;;;;;10.45;6.32;;;4.80;99.90;;;;;;4911863;29;20044;-64
2022/04/05 06:08:04;;;;;;;7.25;4.53;;;4.80;99.90;;;;;;4918359;29;20112;-63
2022/04/05 06:10:31;;;;;;;6.03;3.83;;;4.90;99.90;;;;;;4917921;29;20055;-63
2022/04/05 06:12:58;;;;;;;5.47;3.63;;;5.20;99.90;;;;;;4915921;29;20111;-63
2022/04/05 06:15:26;;;;;;;5.38;3.63;;;5.30;99.90;;;;;;4917999;29;20048;-63
2022/04/05 06:17:53;;;;;;;4.93;3.00;;;5.50;99.90;;;;;;4918027;29;20489;-63
2022/04/05 06:20:21;;;;;;;6.93;3.30;;;5.60;99.90;;;;;;4916260;29;20041;-63
2022/04/05 06:22:56;;;;;;;5.90;3.65;;;5.60;99.90;;;;;;4917682;29;20135;-64
2022/04/05 06:25:35;;;;;;;6.82;4.15;;;5.60;99.90;;;;;;4918427;29;20056;-63
2022/04/05 06:28:07;;;;;;;7.90;4.85;;;5.60;99.90;;;;;;4914738;29;20048;-63
2022/04/05 06:30:37;;;;;;;5.45;3.40;;;5.70;99.90;;;;;;4917477;29;20051;-63
2022/04/05 06:33:11;;;;;;;8.25;3.65;;;5.70;99.90;;;;;;4917887;29;20053;-63
2022/04/05 06:35:40;;;;;;;8.98;4.10;;;5.80;99.90;;;;;;4917808;29;20048;-63
2022/04/05 06:38:08;;;;;;;5.78;3.95;;;5.80;99.90;;;;;;4913417;29;20068;-63
2022/04/05 06:40:34;;;;;;;;;;;5.80;99.90;;;;;;4917778;29;20044;-63
2022/04/05 06:43:01;;;;;;;8.60;3.70;;;5.90;99.90;;;;;;4917436;29;19971;-63
2022/04/05 06:45:28;;;;;;;4.90;3.58;;;5.90;99.90;;;;;;4917870;29;20445;-63
2022/04/05 06:47:55;;;;;;;4.28;3.35;;;6.00;99.90;;;;;;4913867;29;20064;-64
2022/04/05 06:50:25;;;;;;;5.95;4.10;;;6.00;99.90;;;;;;4916565;29;20055;-64
2022/04/05 06:52:55;;;;;;;7.63;4.50;;;6.00;99.90;;;;;;4917288;29;20044;-64
2022/04/05 06:55:22;;;;;;;6.40;4.13;;;6.00;99.90;;;;;;4917522;29;20063;-64
2022/04/05 06:57:50;;;;;;;5.55;4.35;;;6.00;99.90;;;;;;4913482;29;20052;-64
2022/04/05 07:00:18;;;;;;;8.52;3.90;;;6.00;99.90;;;;;;4915596;29;20091;-63
2022/04/05 07:02:45;;;;;;;6.40;3.97;;;6.00;99.90;;;;;;4917363;29;20517;-63
2022/04/05 07:05:12;;;;;;;9.48;3.83;;;6.00;99.90;;;;;;4917188;29;20048;-64
2022/04/05 07:07:39;;;;;;;;;;;6.00;99.90;;;;;;4915534;29;20437;-64
2022/04/05 07:10:08;;;;;;;6.18;4.20;;;6.00;99.90;;;;;;4916918;29;20396;-64
2022/04/05 07:12:35;;;;;;;7.32;4.32;;;6.00;99.90;;;;;;4917150;29;20123;-63
2022/04/05 07:15:03;;;;;;;7.25;3.95;;;6.00;99.90;;;;;;4915314;29;20095;-64
2022/04/05 07:17:29;;;;;;;8.00;4.25;;;6.00;99.90;;;;;;4916969;29;20047;-64
2022/04/05 07:20:16;;;;;;;8.20;4.78;;;6.00;99.90;;;;;;4916645;29;20497;-64
2022/04/05 07:22:48;;;;;;;8.52;5.22;;;6.00;99.90;;;;;;4916860;29;20107;-64
2022/04/05 07:25:16;;;;;;;10.10;5.88;;;5.90;99.90;;;;;;4914187;29;20405;-64
2022/04/05 07:27:44;;;;;;;11.95;7.13;;;5.90;99.90;;;;;;4916784;29;20044;-64
2022/04/05 07:30:12;;;;;;;18.73;6.85;;;5.90;99.90;;;;;;4916886;29;20501;-64
2022/04/05 07:32:40;;;;;;;14.13;7.68;;;5.80;99.90;;;;;;4916785;29;20052;-63
2022/04/05 07:35:07;;;;;;;15.60;8.07;;;5.70;99.90;;;;;;4911096;29;20108;-64
2022/04/05 07:37:35;;;;;;;14.45;7.97;;;5.60;99.90;;;;;;4916727;29;20463;-64
2022/04/05 07:40:05;;;;;;;16.73;7.82;;;5.50;99.90;;;;;;4916392;29;20453;-64
2022/04/05 07:42:32;;;;;;;11.48;7.40;;;5.60;99.90;;;;;;4916663;29;20051;-64
2022/04/05 07:44:59;;;;;;;12.25;7.28;;;5.60;99.90;;;;;;4913054;29;20047;-64
2022/04/05 07:47:26;;;;;;;19.50;8.80;;;5.50;99.90;;;;;;4916437;29;20059;-64
2022/04/05 07:49:53;;;;;;;9.38;5.90;;;5.50;99.90;;;;;;4916433;29;20480;-64
2022/04/05 07:52:20;;;;;;;15.90;8.13;;;5.50;99.90;;;;;;4914341;29;20096;-64
2022/04/05 07:54:47;;;;;;;12.35;8.05;;;5.50;99.90;;;;;;4911256;29;20519;-64
2022/04/05 07:57:14;;;;;;;15.75;8.35;;;5.40;99.90;;;;;;4916392;29;20044;-64
2022/04/05 07:59:41;;;;;;;18.77;8.18;;;5.50;99.90;;;;;;4916186;29;20052;-64
2022/04/05 08:02:08;;;;;;;12.85;7.55;;;5.40;99.90;;;;;;4913536;29;20501;-64
2022/04/05 08:04:53;;;;;;;16.05;8.63;;;5.40;99.90;;;;;;4916270;29;20048;-64
2022/04/05 08:07:20;;;;;;;16.25;8.55;;;5.40;99.90;;;;;;4916485;29;20405;-64
2022/04/05 08:09:47;;;;;;;14.00;8.50;;;5.40;99.90;;;;;;4910437;29;20047;-64
2022/04/05 08:12:14;;;;;;;14.85;8.25;;;5.40;99.90;;;;;;4915682;29;20562;-64
2022/04/05 08:14:40;;;;;;;13.20;7.43;;;5.40;99.90;;;;;;4916239;29;20052;-64
2022/04/05 08:17:07;;;;;;;12.65;7.93;;;5.40;99.90;;;;;;4912114;29;20561;-64
2022/04/05 08:19:34;;;;;;;12.98;7.38;;;5.50;99.90;;;;;;4915038;29;20112;-64
2022/04/05 08:22:01;;;;;;;18.63;7.95;;;5.50;99.90;;;;;;4915780;29;20408;-64
2022/04/05 08:24:27;;;;;;;13.93;7.50;;;5.60;99.90;;;;;;4915817;29;20045;-64
2022/04/05 08:26:54;;;;;;;15.25;8.13;;;5.60;99.90;;;;;;4912851;29;20404;-64
2022/04/05 08:29:21;;;;;;;16.15;8.05;;;5.70;99.90;;;;;;4915629;29;20099;-64
2022/04/05 08:31:47;;;;;;;14.77;5.82;;;5.70;99.90;;;;;;4898425;29;20064;-64
2022/04/05 08:34:14;;;;;;;16.00;8.45;;;5.70;99.90;;;;;;4916207;29;20186;-64
2022/04/05 08:36:41;;;;;;;16.15;7.90;;;5.70;99.90;;;;;;4907756;29;20076;-64
2022/04/05 08:39:08;;;;;;;11.63;5.78;;;5.80;99.90;;;;;;4915723;29;20430;-64
2022/04/05 08:41:36;;;;;;;16.70;8.80;;;5.80;99.90;;;;;;4915407;29;20048;-64
2022/04/05 08:44:04;;;;;;;16.20;8.57;;;5.90;99.90;;;;;;4908933;29;20311;-64
2022/04/05 08:46:34;;;;;;;23.27;9.00;;;5.90;99.90;;;;;;4915441;29;20386;-64
2022/04/05 08:49:02;;;;;;;19.63;8.95;;;6.00;99.90;;;;;;4898845;29;20248;-64
2022/04/05 08:51:30;;;;;;;13.90;9.07;;;6.10;99.90;;;;;;4912311;29;20112;-65
2022/04/05 08:53:57;;;;;;;14.13;8.07;;;6.10;99.90;;;;;;4898066;29;21129;-64
2022/04/05 08:56:27;;;;;;;16.02;9.07;;;6.10;99.90;;;;;;4915412;29;20421;-65
2022/04/05 08:58:54;;;;;;;13.88;8.10;;;6.20;99.90;;;;;;4915458;29;20046;-65
2022/04/05 09:01:21;;;;;;;19.10;8.35;;;6.30;99.90;;;;;;4908386;29;20060;-65
2022/04/05 09:03:49;;;;;;;17.80;9.98;;;6.30;99.90;;;;;;4915139;29;20545;-65
2022/04/05 09:06:28;;;;;;;19.25;9.10;;;6.30;99.90;;;;;;4914992;29;20472;-65
2022/04/05 09:09:06;;;;;;;15.02;9.10;;;6.30;99.90;;;;;;4915315;29;20052;-65
2022/04/05 09:11:33;;;;;;;15.13;8.90;;;6.40;99.90;;;;;;4907554;29;20040;-64
2022/04/05 09:14:02;;;;;;;16.05;9.68;;;6.40;99.90;;;;;;4915116;29;20052;-64
2022/04/05 09:16:32;;;;;;;16.10;8.57;;;6.40;99.90;;;;;;4914976;29;20446;-64
2022/04/05 09:19:08;;;;;;;15.55;9.20;;;6.50;99.90;;;;;;4912294;29;20060;-65
2022/04/05 09:21:56;;;;;;;15.52;8.95;;;6.60;99.90;;;;;;4908281;29;20409;-65
2022/04/05 09:24:39;;;;;;;16.67;7.75;;;6.80;99.90;;;;;;4915092;29;20051;-64
2022/04/05 09:27:07;;;;;;;14.23;8.98;;;6.70;99.90;;;;;;4897450;29;20111;-64
2022/04/05 09:29:42;;;;;;;13.45;7.80;;;6.70;99.90;;;;;;4914613;29;20044;-64
2022/04/05 09:32:10;;;;;;;13.98;7.43;;;6.60;99.90;;;;;;4917784;29;20467;-65
2022/04/05 09:34:50;;;;;;;15.10;8.15;;;6.70;99.90;;;;;;4918790;29;20052;-65
2022/04/05 09:37:25;;;;;;;14.93;8.27;;;6.60;99.90;;;;;;4917310;29;20048;-65
2022/04/05 09:39:55;;;;;;;13.52;7.30;;;6.60;99.90;;;;;;4918777;29;20104;-65
2022/04/05 09:42:21;;;;;;;13.40;7.22;;;6.70;99.90;;;;;;4918826;29;20427;-65
2022/04/05 09:44:48;;;;;;;17.02;7.85;;;6.70;99.90;;;;;;4915552;29;20052;-65
2022/04/05 09:47:17;;;;;;;13.65;8.52;;;6.70;99.90;;;;;;4917251;29;20115;-64
2022/04/05 09:49:47;;;;;;;20.85;9.02;;;6.80;99.90;;;;;;4918347;29;20493;-65
2022/04/05 09:52:33;;;;;;;14.65;7.93;;;6.90;99.90;;;;;;4918522;29;20063;-64
2022/04/05 09:55:11;;;;;;;15.95;8.13;;;6.90;99.90;;;;;;4910413;29;20093;-64
2022/04/05 09:57:38;;;;;;;13.55;7.57;;;7.10;99.90;;;;;;4912296;29;20052;-65
2022/04/05 10:00:16;;;;;;;13.60;7.60;;;7.20;99.90;;;;;;4917990;29;20103;-65
2022/04/05 10:03:04;;;;;;;18.23;7.72;;;7.30;99.90;;;;;;4914731;29;20048;-65
2022/04/05 10:05:33;;;;;;;15.73;8.02;;;7.40;99.90;;;;;;4899477;29;20051;-65
2022/04/05 10:08:00;;;;;;;18.75;8.90;;;7.40;99.90;;;;;;4899562;29;20056;-64
2022/04/05 10:10:27;;;;;;;17.42;9.00;;;7.40;99.90;;;;;;4902079;29;20048;-65
2022/04/05 10:12:54;;;;;;;;;;;7.30;99.90;;;;;;4918292;29;20047;-65
2022/04/05 10:15:21;;;;;;;20.42;8.73;;;7.40;99.90;;;;;;4918305;29;19934;-65
2022/04/05 10:17:49;;;;;;;15.07;8.48;;;7.60;99.90;;;;;;4918394;29;20058;-65
2022/04/05 10:20:17;;;;;;;15.98;8.82;;;7.70;99.90;;;;;;4914548;29;20052;-65
2022/04/05 10:22:53;;;;;;;23.00;8.65;;;7.90;99.90;;;;;;4901123;29;20052;-65
2022/04/05 10:25:21;;;;;;;18.98;8.30;;;8.00;99.90;;;;;;4917836;29;20048;-65
2022/04/05 10:27:49;;;;;;;12.23;7.68;;;8.00;99.90;;;;;;4912453;29;20037;-65
2022/04/05 10:30:17;;;;;;;;;;;8.30;99.90;;;;;;4916405;29;20044;-65
2022/04/05 10:32:51;;;;;;;;;;;8.30;99.90;;;;;;4918515;29;19923;-65
2022/04/05 10:35:23;;;;;;;15.15;8.32;;;8.30;99.90;;;;;;4917863;29;19923;-65
2022/04/05 10:37:52;;;;;;;15.75;7.95;;;8.30;99.90;;;;;;4913987;29;20059;-62
2022/04/05 10:40:20;;;;;;;10.95;6.88;;;8.40;99.90;;;;;;4917433;29;20389;-65
2022/04/05 10:42:51;;;;;;;13.57;7.05;;;8.20;99.90;;;;;;4917077;29;20048;-64
2022/04/05 10:45:23;;;;;;;14.75;7.32;;;8.30;99.90;;;;;;4915762;29;20063;-65
2022/04/05 10:48:16;;;;;;;15.50;6.60;;;8.30;99.90;;;;;;4912850;29;20055;-65
2022/04/05 10:51:01;;;;;;;10.70;7.03;;;8.20;99.90;;;;;;4898944;29;20067;-64
2022/04/05 10:54:17;;;;;;;15.20;6.97;;;8.20;99.90;;;;;;4920474;23;20044;-67
2022/04/05 10:57:26;;;;;;;14.98;6.65;;;8.10;99.90;;;;;;4915918;29;20088;-67
2022/04/05 10:59:56;;;;;;;18.23;7.18;;;8.10;99.90;;;;;;4917123;29;20055;-67
2022/04/05 11:02:35;;;;;;;12.93;6.55;;;8.20;99.90;;;;;;4910215;29;20036;-67
2022/04/05 11:05:14;;;;;;;13.50;7.40;;;8.10;99.90;;;;;;4917371;29;20119;-67
2022/04/05 11:08:10;;;;;;;16.98;7.75;;;8.20;99.90;;;;;;4936448;29;20051;-67
2022/04/05 11:10:36;;;;;;;12.40;6.38;;;8.20;99.90;;;;;;4906143;29;20060;-67
2022/04/05 11:13:05;;;;;;;12.45;7.13;;;8.40;99.90;;;;;;4917096;29;20047;-67
2022/04/05 11:15:42;;;;;;;14.27;6.97;;;8.50;99.90;;;;;;4917438;29;20401;-68
2022/04/05 11:18:10;;;;;;;17.33;6.80;;;8.70;99.90;;;;;;4917226;29;20058;-67
2022/04/05 11:20:38;;;;;;;;;;;8.80;99.90;;;;;;4911320;29;20044;-68
2022/04/05 11:23:12;;;;;;;10.90;6.70;;;8.70;99.90;;;;;;4916894;29;19923;-68
2022/04/05 11:25:39;;;;;;;9.95;6.35;;;8.80;99.90;;;;;;4916937;29;20048;-68
2022/04/05 11:28:15;;;;;;;10.65;6.97;;;8.80;99.90;;;;;;4914131;29;20044;-68
2022/04/05 11:30:55;;;;;;;11.82;6.70;;;8.90;99.90;;;;;;4916467;29;20461;-68
2022/04/05 11:33:35;;;;;;;12.65;6.43;;;9.10;99.90;;;;;;4916957;29;20131;-67
2022/04/05 11:36:10;;;;;;;13.93;6.68;;;9.30;99.90;;;;;;4916023;29;20056;-68
2022/04/05 11:38:49;;;;;;;10.25;6.28;;;9.40;99.90;;;;;;4916775;29;20044;-68
2022/04/05 11:41:30;;;;;;;12.82;7.28;;;9.00;99.90;;;;;;4916401;29;20060;-68
2022/04/05 11:43:59;;;;;;;10.15;6.30;;;9.00;99.90;;;;;;4916479;29;20045;-67
2022/04/05 11:46:28;;;;;;;15.32;6.30;;;9.00;99.90;;;;;;4909923;29;20095;-68
2022/04/05 11:49:00;;;;;;;13.68;6.82;;;9.20;99.90;;;;;;4916654;29;20408;-67
2022/04/05 11:51:30;;;;;;;11.50;5.88;;;9.50;99.90;;;;;;4916167;29;20102;-68
2022/04/05 11:54:17;;;;;;;9.35;6.20;;;9.70;99.90;;;;;;4912191;29;20059;-68
2022/04/05 11:56:44;;;;;;;11.88;6.05;;;9.80;99.90;;;;;;4910913;29;20044;-68
2022/04/05 11:59:16;;;;;;;11.02;5.60;;;9.80;99.90;;;;;;4916301;29;20095;-68
2022/04/05 12:01:48;;;;;;;9.80;5.30;;;9.80;99.90;;;;;;4911138;29;20040;-68
2022/04/05 12:04:20;;;;;;;9.75;5.97;;;9.90;99.90;;;;;;4916455;29;20037;-68
2022/04/05 12:06:58;;;;;;;12.48;5.72;;;9.90;99.90;;;;;;4916102;29;20074;-68
2022/04/05 12:09:26;;;;;;;13.30;6.05;;;9.90;99.90;;;;;;4907679;29;20040;-68
2022/04/05 12:11:54;;;;;;;12.23;5.82;;;9.80;99.90;;;;;;4916170;29;20489;-68
2022/04/05 12:14:24;;;;;;;10.02;5.70;;;9.80;99.90;;;;;;4916049;29;20048;-68
2022/04/05 12:16:57;;;;;;;11.70;6.35;;;9.80;99.90;;;;;;4912713;29;20069;-68
2022/04/05 12:19:28;;;;;;;9.57;5.00;;;9.70;99.90;;;;;;4915301;29;20037;-68
2022/04/05 12:22:05;;;;;;;13.85;6.07;;;9.80;99.90;;;;;;4915779;29;20108;-68
2022/04/05 12:24:33;;;;;;;8.65;4.95;;;9.80;99.90;;;;;;4915966;29;20052;-68
2022/04/05 12:27:03;;;;;;;10.55;5.65;;;9.80;99.90;;;;;;4910812;29;20055;-68
2022/04/05 12:29:31;;;;;;;12.50;5.70;;;9.80;99.90;;;;;;4908287;29;20517;-68
2022/04/05 12:32:05;;;;;;;9.15;5.22;;;9.80;99.90;;;;;;4915874;29;20487;-68
2022/04/05 12:34:33;;;;;;;9.35;5.03;;;9.80;99.90;;;;;;4911898;29;20045;-68
2022/04/05 12:37:14;;;;;;;8.43;4.85;;;9.80;99.90;;;;;;4912225;29;20466;-68
2022/04/05 12:39:46;;;;;;;7.28;4.68;;;10.00;99.90;;;;;;4896625;29;20054;-68
2022/04/05 12:42:13;;;;;;;7.50;4.20;;;10.10;99.90;;;;;;4896624;29;20055;-68
2022/04/05 12:44:42;;;;;;;7.90;3.80;;;10.30;99.90;;;;;;4909533;29;20036;-68
2022/04/05 12:47:20;;;;;;;6.63;3.95;;;10.40;99.90;;;;;;4915682;29;20048;-68
2022/04/05 12:49:49;;;;;;;5.80;3.38;;;10.60;99.90;;;;;;4915148;29;20048;-68
2022/04/05 12:52:17;;;;;;;4.30;3.35;;;10.60;99.90;;;;;;4913644;29;20327;-67
2022/04/05 12:54:47;;;;;;;5.13;3.40;;;10.60;99.90;;;;;;4909723;29;20071;-68
2022/04/05 12:57:34;;;;;;;5.25;3.13;;;10.80;99.90;;;;;;4915257;29;20059;-68
2022/04/05 13:00:18;;;;;;;6.70;3.20;;;10.80;99.90;;;;;;4915274;29;20378;-68
2022/04/05 13:02:56;;;;;;;4.68;3.13;;;10.70;99.90;;;;;;4910246;29;20099;-68
2022/04/05 13:08:17;;;;;;;4.72;3.40;;;10.50;99.90;;;;;;4915217;29;20386;-68